Time;durP1;ratioP1;P1;durP2;ratioP2;P2;SDS_P1;SDS_P2;PMS_P1;PMS_P2;Temp;Humidity;BMP_temperature;BMP_pressure;BME280_temperature;BME280_humidity;BME280_pressure;Samples;Min_cycle;Max_cycle;Signal;HPM_P1;HPM_P2
2021/12/15 00:00:20;;;;;;;9.20;6.15;;;8.70;58.30;;;;;;5165826;27;34187;-77
2021/12/15 00:02:50;;;;;;;12.85;5.88;;;8.70;58.30;;;;;;5132168;27;34298;-77
2021/12/15 00:05:22;;;;;;;9.57;5.82;;;8.70;58.30;;;;;;5114019;27;34604;-77
2021/12/15 00:07:52;;;;;;;8.70;5.90;;;8.70;58.30;;;;;;5131199;27;36602;-77
2021/12/15 00:10:19;;;;;;;9.65;5.93;;;8.70;58.40;;;;;;5148673;27;34550;-77
2021/12/15 00:12:46;;;;;;;10.45;6.00;;;8.70;58.40;;;;;;5131376;27;34277;-77
2021/12/15 00:15:12;;;;;;;9.20;5.60;;;8.70;58.40;;;;;;5149870;27;34148;-77
2021/12/15 00:17:38;;;;;;;7.75;5.38;;;8.70;58.40;;;;;;5148533;27;35600;-77
2021/12/15 00:20:09;;;;;;;10.68;6.20;;;8.70;58.40;;;;;;5114973;27;34105;-77
2021/12/15 00:22:36;;;;;;;11.00;5.70;;;8.70;58.40;;;;;;5132208;27;34189;-77
2021/12/15 00:25:04;;;;;;;9.82;6.05;;;8.70;58.40;;;;;;5045332;27;34026;-77
2021/12/15 00:27:30;;;;;;;10.27;6.05;;;8.70;58.40;;;;;;5114452;27;34335;-77
2021/12/15 00:29:57;;;;;;;9.35;5.90;;;8.70;58.40;;;;;;5148903;27;34233;-77
2021/12/15 00:32:23;;;;;;;11.93;6.07;;;8.70;58.40;;;;;;5147852;27;34221;-77
2021/12/15 00:34:51;;;;;;;9.32;6.20;;;8.70;58.40;;;;;;5130838;27;34509;-77
2021/12/15 00:37:19;;;;;;;10.05;5.90;;;8.70;58.50;;;;;;5113972;27;35876;-77
2021/12/15 00:39:45;;;;;;;9.73;5.50;;;8.70;58.50;;;;;;5044830;27;34270;-77
2021/12/15 00:42:12;;;;;;;10.63;6.32;;;8.70;58.50;;;;;;5131545;27;34476;-77
2021/12/15 00:44:38;;;;;;;9.93;6.25;;;8.70;58.50;;;;;;5148884;27;34435;-77
2021/12/15 00:47:05;;;;;;;11.93;6.85;;;8.70;58.40;;;;;;5148719;27;36073;-77
2021/12/15 00:49:32;;;;;;;9.80;6.03;;;8.70;58.40;;;;;;5044208;27;34065;-77
2021/12/15 00:51:59;;;;;;;9.57;6.47;;;8.70;58.40;;;;;;5147153;27;34182;-77
2021/12/15 00:54:25;;;;;;;12.32;7.40;;;8.70;58.40;;;;;;5044176;27;34237;-77
2021/12/15 00:56:53;;;;;;;11.80;6.15;;;8.70;58.50;;;;;;5146818;27;35702;-77
2021/12/15 00:59:20;;;;;;;13.65;6.50;;;8.60;58.40;;;;;;5130313;27;34112;-77
2021/12/15 01:01:46;;;;;;;13.88;6.35;;;8.60;58.40;;;;;;5129796;27;34258;-77
2021/12/15 01:04:15;;;;;;;8.48;6.00;;;8.60;58.40;;;;;;5044780;27;34106;-77
2021/12/15 01:06:44;;;;;;;10.40;6.22;;;8.70;58.50;;;;;;5129591;27;36149;-77
2021/12/15 01:09:17;;;;;;;11.40;6.45;;;8.70;58.50;;;;;;5129876;27;34263;-77
2021/12/15 01:12:12;;;;;;;11.88;6.72;;;8.70;58.50;;;;;;5129158;27;33887;-77
2021/12/15 01:20:11;;;;;;;13.88;6.93;;;8.70;58.50;;;;;;5103421;27;34545;-77
2021/12/15 01:22:42;;;;;;;10.82;6.15;;;8.60;58.40;;;;;;5129379;27;34101;-77
2021/12/15 01:25:13;;;;;;;12.13;6.78;;;8.70;58.50;;;;;;5127743;27;34358;-77
2021/12/15 01:27:40;;;;;;;12.00;6.88;;;8.70;58.50;;;;;;5110793;27;34094;-77
2021/12/15 01:30:11;;;;;;;10.38;6.93;;;8.60;58.40;;;;;;5144969;27;34062;-77
2021/12/15 01:32:37;;;;;;;12.82;7.13;;;8.70;58.50;;;;;;5127833;27;34262;-77
2021/12/15 01:35:03;;;;;;;10.95;6.53;;;8.60;58.40;;;;;;5041783;27;34057;-77
2021/12/15 01:37:30;;;;;;;11.82;7.00;;;8.70;58.50;;;;;;5109853;27;34503;-77
2021/12/15 01:39:56;;;;;;;11.95;6.57;;;8.70;58.50;;;;;;5041986;27;34068;-77
2021/12/15 01:42:27;;;;;;;13.05;7.30;;;8.70;58.50;;;;;;5145270;27;34352;-77
2021/12/15 01:47:34;;;;;;;14.00;6.70;;;8.70;58.50;;;;;;5040718;27;34789;-77
2021/12/15 01:50:00;;;;;;;11.77;7.10;;;8.70;58.50;;;;;;5127699;27;34223;-77
2021/12/15 01:52:32;;;;;;;9.68;6.70;;;8.70;58.50;;;;;;5040926;28;34166;-77
2021/12/15 01:55:08;;;;;;;10.65;6.53;;;8.60;58.40;;;;;;5144523;27;34306;-77
2021/12/15 01:57:36;;;;;;;12.48;6.35;;;8.60;58.40;;;;;;5109742;27;34365;-77
2021/12/15 02:00:09;;;;;;;10.30;6.60;;;8.60;58.40;;;;;;5126765;27;34224;-77
2021/12/15 02:02:35;;;;;;;11.18;6.45;;;8.60;58.40;;;;;;5040974;27;34104;-77
2021/12/15 02:05:01;;;;;;;9.48;6.22;;;8.60;58.40;;;;;;5136831;27;34144;-78
2021/12/15 02:07:27;;;;;;;10.88;6.20;;;8.60;58.40;;;;;;5143426;27;35683;-77
2021/12/15 02:10:01;;;;;;;12.00;6.45;;;8.60;58.40;;;;;;5145916;27;34240;-77
2021/12/15 02:12:34;;;;;;;12.75;6.07;;;8.70;58.50;;;;;;5145514;27;34050;-77
2021/12/15 02:15:03;;;;;;;9.55;6.22;;;8.60;58.40;;;;;;5128776;27;34331;-77
2021/12/15 02:17:29;;;;;;;12.80;7.07;;;8.60;58.40;;;;;;5143225;27;36084;-77
2021/12/15 02:19:55;;;;;;;14.07;6.65;;;8.60;58.40;;;;;;5144587;27;34124;-77
2021/12/15 02:22:22;;;;;;;9.23;6.35;;;8.70;58.50;;;;;;5144424;27;34277;-77
2021/12/15 02:24:51;;;;;;;9.50;6.57;;;8.70;58.50;;;;;;5143429;27;34582;-77
2021/12/15 02:27:17;;;;;;;12.00;6.15;;;8.70;58.50;;;;;;5126989;27;36389;-77
2021/12/15 02:29:46;;;;;;;8.80;5.93;;;8.60;58.40;;;;;;5127174;27;34264;-77
2021/12/15 02:32:30;;;;;;;10.50;6.32;;;8.60;58.40;;;;;;5143746;27;34273;-77
2021/12/15 02:37:37;;;;;;;11.95;6.15;;;8.70;58.60;;;;;;5144907;27;34211;-77
2021/12/15 02:40:10;;;;;;;11.38;7.05;;;8.70;58.60;;;;;;5144047;27;34039;-77
2021/12/15 02:42:40;;;;;;;11.02;6.93;;;8.60;58.40;;;;;;5128007;27;34158;-77
2021/12/15 02:45:09;;;;;;;11.70;6.85;;;8.60;58.40;;;;;;5144921;27;34364;-77
2021/12/15 02:47:36;;;;;;;8.02;5.97;;;8.60;58.50;;;;;;5126842;27;36723;-77
2021/12/15 02:50:07;;;;;;;9.55;5.90;;;8.60;58.50;;;;;;5144881;27;34161;-77
2021/12/15 02:52:34;;;;;;;10.18;6.72;;;8.60;58.50;;;;;;5126530;27;34309;-77
2021/12/15 02:55:00;;;;;;;9.43;6.25;;;8.60;58.50;;;;;;5126800;27;34524;-77
2021/12/15 02:57:26;;;;;;;9.50;6.50;;;8.60;58.50;;;;;;5146584;27;36891;-77
2021/12/15 03:00:00;;;;;;;12.50;7.00;;;8.60;58.50;;;;;;5147280;27;34170;-77
2021/12/15 03:03:06;;;;;;;10.85;6.78;;;8.60;58.50;;;;;;5146736;27;34295;-77
2021/12/15 03:05:23;;;;;;;9.68;6.22;;;8.60;58.50;;;;;;5147292;27;34390;-78
2021/12/15 03:08:02;;;;;;;10.68;6.97;;;8.60;58.60;;;;;;5147401;27;34289;-77
2021/12/15 03:15:52;;;;;;;10.63;6.78;;;8.60;58.70;;;;;;5147545;27;34386;-77
2021/12/15 03:18:22;;;;;;;11.10;7.10;;;8.50;58.70;;;;;;5129661;27;34234;-77
2021/12/15 03:20:57;;;;;;;11.60;6.57;;;8.50;59.40;;;;;;5146694;27;34373;-77
2021/12/15 03:23:41;;;;;;;13.00;7.25;;;8.50;58.80;;;;;;5129829;27;34316;-77
2021/12/15 03:26:10;;;;;;;11.48;6.22;;;8.50;58.80;;;;;;5130212;27;34406;-77
2021/12/15 03:34:15;;;;;;;11.38;6.72;;;8.50;58.60;;;;;;5130768;27;34332;-77
2021/12/15 03:39:32;;;;;;;10.57;6.63;;;8.40;58.50;;;;;;5146461;27;34860;-77
2021/12/15 03:42:03;;;;;;;9.25;6.35;;;8.40;58.50;;;;;;5145831;27;35149;-77
2021/12/15 03:44:33;;;;;;;10.20;6.03;;;8.40;58.60;;;;;;5128776;27;34436;-77
2021/12/15 03:47:01;;;;;;;9.32;6.50;;;8.40;58.50;;;;;;5129341;27;34198;-77
2021/12/15 03:49:27;;;;;;;10.45;6.55;;;8.30;58.50;;;;;;5128121;27;36024;-77
2021/12/15 03:51:54;;;;;;;12.48;6.82;;;8.30;58.50;;;;;;5145701;27;34372;-77
2021/12/15 03:54:20;;;;;;;12.20;6.68;;;8.30;58.50;;;;;;5146172;27;34576;-77
2021/12/15 03:56:48;;;;;;;9.68;6.45;;;8.30;58.50;;;;;;5145943;27;34088;-77
2021/12/15 03:59:14;;;;;;;10.18;6.55;;;8.30;58.60;;;;;;5162867;27;35790;-77
2021/12/15 04:01:40;;;;;;;11.27;7.15;;;8.30;58.60;;;;;;5145082;27;34279;-77
2021/12/15 04:04:06;;;;;;;10.55;6.45;;;8.30;58.60;;;;;;5129208;27;34127;-77
2021/12/15 04:06:36;;;;;;;11.77;7.05;;;8.30;58.60;;;;;;5127983;27;34484;-77
2021/12/15 04:09:05;;;;;;;10.45;6.75;;;8.30;58.60;;;;;;5145518;27;36402;-77
2021/12/15 04:11:34;;;;;;;10.38;6.68;;;8.30;58.60;;;;;;5128534;27;34078;-77
2021/12/15 04:14:03;;;;;;;12.63;6.78;;;8.30;58.60;;;;;;5129144;27;34177;-77
2021/12/15 04:16:44;;;;;;;13.25;7.07;;;8.30;58.60;;;;;;5127950;27;34368;-77
2021/12/15 04:19:15;;;;;;;11.07;7.25;;;8.30;59.40;;;;;;5145466;27;35633;-77
2021/12/15 04:21:42;;;;;;;15.70;7.43;;;8.30;58.60;;;;;;5145838;27;34180;-77
2021/12/15 04:24:12;;;;;;;12.82;7.75;;;8.30;58.60;;;;;;5145344;27;34252;-77
2021/12/15 04:26:38;;;;;;;13.32;7.85;;;8.30;58.60;;;;;;5128498;27;34095;-77
2021/12/15 04:29:05;;;;;;;13.00;7.70;;;8.20;58.60;;;;;;5127734;27;34394;-77
2021/12/15 04:31:34;;;;;;;15.50;8.00;;;8.20;58.50;;;;;;5162548;27;34212;-77
2021/12/15 04:34:06;;;;;;;13.35;8.43;;;8.20;58.60;;;;;;5127931;27;34297;-77
2021/12/15 04:36:37;;;;;;;14.77;8.20;;;8.20;58.50;;;;;;5128349;27;34138;-77
2021/12/15 04:39:07;;;;;;;12.85;8.05;;;8.20;58.50;;;;;;5126837;27;36369;-77
2021/12/15 04:41:32;;;;;;;15.18;8.40;;;8.20;58.60;;;;;;5127103;27;34165;-77
2021/12/15 04:44:01;;;;;;;15.43;8.43;;;8.20;58.50;;;;;;5145644;27;34099;-77
2021/12/15 04:46:32;;;;;;;15.98;8.88;;;8.10;58.50;;;;;;5144542;27;34160;-77
2021/12/15 04:48:58;;;;;;;13.27;8.27;;;8.10;58.50;;;;;;5127538;27;36296;-77
2021/12/15 04:51:25;;;;;;;13.38;8.13;;;8.10;58.60;;;;;;5144444;27;34212;-77
2021/12/15 04:53:52;;;;;;;13.82;8.20;;;8.00;58.50;;;;;;5128639;27;34116;-77
2021/12/15 04:56:20;;;;;;;12.70;8.38;;;8.00;58.60;;;;;;5128862;27;34212;-77
2021/12/15 04:58:48;;;;;;;14.65;8.88;;;8.00;58.70;;;;;;5128136;27;34342;-77
2021/12/15 05:01:15;;;;;;;18.13;9.18;;;8.00;58.60;;;;;;5144926;27;34114;-77
2021/12/15 05:03:41;;;;;;;15.57;8.07;;;8.00;58.60;;;;;;5144848;27;34353;-77
2021/12/15 05:06:08;;;;;;;12.88;7.60;;;8.00;58.60;;;;;;5146099;27;34312;-77
2021/12/15 05:08:35;;;;;;;14.82;8.88;;;8.00;58.60;;;;;;5143671;27;35803;-77
2021/12/15 05:11:02;;;;;;;14.38;7.78;;;8.00;58.60;;;;;;5144763;27;34245;-77
2021/12/15 05:13:29;;;;;;;12.88;8.10;;;8.00;58.60;;;;;;5127364;27;34269;-77
2021/12/15 05:15:55;;;;;;;14.25;7.32;;;8.00;58.60;;;;;;5145164;27;34056;-77
2021/12/15 05:18:22;;;;;;;14.10;7.80;;;8.00;58.60;;;;;;5143450;27;35673;-77
2021/12/15 05:20:51;;;;;;;13.85;7.93;;;8.00;58.70;;;;;;5161655;27;34262;-77
2021/12/15 05:23:18;;;;;;;14.15;7.68;;;8.00;58.60;;;;;;5144522;27;34121;-77
2021/12/15 05:25:46;;;;;;;12.30;7.40;;;8.00;58.60;;;;;;5143781;27;34137;-77
2021/12/15 05:28:13;;;;;;;14.15;7.88;;;8.00;58.60;;;;;;5144130;27;35873;-77
2021/12/15 05:30:39;;;;;;;13.32;8.10;;;8.00;58.60;;;;;;5161017;27;34244;-77
2021/12/15 05:33:06;;;;;;;11.93;7.40;;;8.00;58.60;;;;;;5145664;27;34215;-77
2021/12/15 05:35:33;;;;;;;14.23;7.55;;;8.00;58.50;;;;;;5144137;27;34313;-77
2021/12/15 05:38:00;;;;;;;16.30;8.55;;;8.00;58.50;;;;;;5160839;27;36572;-77
2021/12/15 05:40:28;;;;;;;12.90;7.78;;;8.00;58.40;;;;;;5144042;27;34127;-77
2021/12/15 05:42:56;;;;;;;14.45;8.38;;;8.00;58.40;;;;;;5127104;27;34367;-77
2021/12/15 05:45:24;;;;;;;13.48;8.32;;;8.00;58.40;;;;;;5144326;27;34678;-77
2021/12/15 05:47:51;;;;;;;13.70;8.85;;;8.10;58.50;;;;;;5144155;27;35780;-77
2021/12/15 05:50:17;;;;;;;12.95;7.55;;;8.10;58.50;;;;;;5144501;27;34477;-77
2021/12/15 05:52:43;;;;;;;14.32;8.30;;;8.10;58.50;;;;;;5158077;27;34154;-77
2021/12/15 05:55:12;;;;;;;14.75;9.05;;;8.10;58.50;;;;;;5168851;27;34224;-77
2021/12/15 05:57:38;;;;;;;18.48;8.88;;;8.10;58.50;;;;;;5151638;27;34863;-77
2021/12/15 06:00:08;;;;;;;13.00;7.75;;;8.10;58.50;;;;;;5169528;27;34008;-77
2021/12/15 06:02:34;;;;;;;13.73;7.95;;;8.10;58.50;;;;;;5169297;27;34015;-77
2021/12/15 06:05:00;;;;;;;14.75;8.30;;;8.10;58.50;;;;;;5150753;27;34178;-77
2021/12/15 06:07:26;;;;;;;14.02;7.78;;;8.10;58.50;;;;;;5187285;27;34415;-77
2021/12/15 06:09:52;;;;;;;13.63;8.35;;;8.10;58.50;;;;;;5151003;27;34233;-77
2021/12/15 06:12:18;;;;;;;16.48;9.35;;;8.10;58.50;;;;;;5168970;27;34275;-76
2021/12/15 06:14:44;;;;;;;13.00;7.80;;;8.10;58.60;;;;;;5168720;27;34285;-77
2021/12/15 06:17:12;;;;;;;14.43;7.88;;;8.10;58.50;;;;;;5187597;27;35148;-77
2021/12/15 06:19:38;;;;;;;13.70;7.45;;;8.10;58.50;;;;;;5150908;27;34526;-77
2021/12/15 06:22:06;;;;;;;14.50;8.05;;;8.10;58.50;;;;;;5168439;27;34276;-77
2021/12/15 06:24:36;;;;;;;15.32;8.35;;;8.00;58.40;;;;;;5169229;27;34394;-77
2021/12/15 06:27:09;;;;;;;13.75;7.88;;;8.00;58.40;;;;;;5169278;27;34487;-77
2021/12/15 06:29:36;;;;;;;14.43;8.07;;;8.00;58.40;;;;;;5151938;27;34317;-77
2021/12/15 06:32:04;;;;;;;13.35;8.30;;;8.00;58.50;;;;;;5154463;27;34249;-77
2021/12/15 06:34:30;;;;;;;15.00;8.48;;;8.00;58.40;;;;;;5190876;27;34417;-77
2021/12/15 06:36:57;;;;;;;18.58;7.80;;;8.00;58.40;;;;;;5154895;27;35825;-77
2021/12/15 06:39:23;;;;;;;14.13;7.65;;;8.00;58.50;;;;;;5171821;27;34320;-77
2021/12/15 06:41:49;;;;;;;14.75;8.02;;;8.00;58.40;;;;;;5171872;27;34186;-77
2021/12/15 06:44:16;;;;;;;13.52;7.63;;;7.90;58.40;;;;;;5172459;27;34043;-77
2021/12/15 07:00:13;;;;;;;12.73;6.05;;;7.90;58.50;;;;;;5189655;27;34251;-77
2021/12/15 07:02:40;;;;;;;8.50;5.53;;;7.80;58.40;;;;;;5154987;27;34145;-76
2021/12/15 07:05:09;;;;;;;11.02;6.07;;;7.80;58.40;;;;;;5172791;27;34119;-77
2021/12/15 07:07:36;;;;;;;11.52;6.07;;;7.70;58.50;;;;;;5171563;27;34432;-77
2021/12/15 07:10:04;;;;;;;12.02;5.93;;;7.70;58.50;;;;;;5155255;27;34128;-77
2021/12/15 07:12:30;;;;;;;10.15;6.20;;;7.70;58.50;;;;;;5172781;27;34243;-77
2021/12/15 07:14:56;;;;;;;10.77;6.45;;;7.70;58.50;;;;;;5144386;27;34126;-77
2021/12/15 07:17:24;;;;;;;11.85;6.72;;;7.70;58.60;;;;;;5112888;27;36628;-77
2021/12/15 07:20:06;;;;;;;10.23;6.55;;;7.70;58.50;;;;;;5113038;27;34158;-77
2021/12/15 07:25:16;;;;;;;16.02;6.53;;;7.70;58.60;;;;;;5148111;27;34074;-77
2021/12/15 07:27:43;;;;;;;11.60;6.07;;;7.70;58.60;;;;;;5129769;27;35844;-77
2021/12/15 07:30:09;;;;;;;9.77;5.93;;;7.70;58.50;;;;;;5148766;27;34172;-77
2021/12/15 07:32:36;;;;;;;10.80;5.65;;;7.70;58.40;;;;;;5113721;27;34179;-77
2021/12/15 07:35:04;;;;;;;8.20;5.40;;;7.70;58.40;;;;;;5114006;27;34207;-77
2021/12/15 07:37:32;;;;;;;9.35;5.88;;;7.70;58.40;;;;;;5148958;27;35018;-77
2021/12/15 07:40:00;;;;;;;8.75;6.00;;;7.70;58.40;;;;;;5130675;27;34462;-77
2021/12/15 07:42:34;;;;;;;9.70;5.88;;;7.60;58.20;;;;;;5129826;27;34291;-77
2021/12/15 07:45:02;;;;;;;9.02;5.90;;;7.70;58.40;;;;;;5147770;27;33680;-77
2021/12/15 07:47:29;;;;;;;8.52;5.88;;;7.70;58.40;;;;;;5128450;27;35888;-77
2021/12/15 07:49:59;;;;;;;12.10;5.65;;;7.70;58.40;;;;;;5130104;27;34160;-77
2021/12/15 07:52:26;;;;;;;9.63;5.72;;;7.70;58.40;;;;;;5130705;27;34162;-77
2021/12/15 07:54:52;;;;;;;9.13;5.78;;;7.70;58.70;;;;;;5149077;27;34129;-77
2021/12/15 07:57:20;;;;;;;9.57;6.03;;;7.70;58.40;;;;;;5130017;27;35542;-77
2021/12/15 07:59:47;;;;;;;9.30;5.80;;;7.70;58.20;;;;;;5112993;27;34204;-77
2021/12/15 08:02:23;;;;;;;10.30;6.43;;;7.70;58.20;;;;;;5130216;27;34247;-77
2021/12/15 08:04:49;;;;;;;10.10;5.95;;;7.70;58.30;;;;;;5130326;27;34123;-77
2021/12/15 08:07:15;;;;;;;10.73;6.72;;;7.70;58.30;;;;;;5130240;27;36066;-76
2021/12/15 08:09:42;;;;;;;8.82;5.45;;;7.70;58.20;;;;;;5130220;27;34197;-77
2021/12/15 08:12:09;;;;;;;9.20;5.60;;;7.70;58.10;;;;;;5129610;27;34050;-77
2021/12/15 08:14:35;;;;;;;7.95;5.30;;;7.70;58.10;;;;;;5112457;27;34433;-77
2021/12/15 08:17:01;;;;;;;8.13;5.15;;;7.70;58.10;;;;;;5109097;27;35941;-77
2021/12/15 08:19:27;;;;;;;9.40;5.30;;;7.70;58.00;;;;;;5092777;27;34213;-77
2021/12/15 08:21:53;;;;;;;9.68;5.65;;;7.70;58.00;;;;;;5109457;27;34250;-77
2021/12/15 08:24:19;;;;;;;9.43;5.65;;;7.70;58.00;;;;;;5092206;27;34115;-77
2021/12/15 08:26:46;;;;;;;9.40;5.15;;;7.80;58.00;;;;;;5109157;27;35973;-77
2021/12/15 08:29:12;;;;;;;8.52;5.80;;;7.80;58.00;;;;;;5108369;27;34230;-77
2021/12/15 08:31:38;;;;;;;7.05;5.13;;;7.80;58.00;;;;;;5108690;27;34187;-77
2021/12/15 08:34:08;;;;;;;8.25;5.25;;;7.80;58.10;;;;;;5109630;27;34239;-77
2021/12/15 08:36:35;;;;;;;9.30;5.40;;;7.80;58.10;;;;;;5127419;27;34398;-77
2021/12/15 08:39:03;;;;;;;9.77;6.07;;;7.80;58.10;;;;;;5126605;27;34169;-76
2021/12/15 08:41:29;;;;;;;9.27;5.53;;;7.80;58.00;;;;;;5091962;27;34247;-77
2021/12/15 08:43:57;;;;;;;7.68;5.25;;;7.80;58.00;;;;;;5108905;27;34174;-77
2021/12/15 08:46:31;;;;;;;8.40;5.38;;;7.80;58.00;;;;;;5091549;27;36109;-77
2021/12/15 08:49:03;;;;;;;9.75;5.60;;;7.70;57.80;;;;;;5110704;27;34055;-77
2021/12/15 08:51:29;;;;;;;11.40;5.57;;;7.70;57.90;;;;;;5125531;27;34154;-77
2021/12/15 08:54:00;;;;;;;8.30;5.60;;;7.70;58.00;;;;;;5140830;27;34185;-77
2021/12/15 08:56:26;;;;;;;9.23;5.32;;;7.70;58.00;;;;;;5091199;27;36412;-77
2021/12/15 08:58:53;;;;;;;10.43;5.35;;;7.80;58.10;;;;;;5091011;27;34201;-77
2021/12/15 09:01:20;;;;;;;7.93;5.22;;;7.80;58.00;;;;;;5092409;27;34166;-76
2021/12/15 09:03:46;;;;;;;7.55;4.95;;;7.90;58.10;;;;;;5108627;27;34343;-77
2021/12/15 09:06:13;;;;;;;10.00;5.50;;;7.90;57.90;;;;;;5108441;27;35590;-77
2021/12/15 09:08:41;;;;;;;7.35;5.10;;;7.90;58.00;;;;;;5109352;27;33829;-77
2021/12/15 09:11:10;;;;;;;8.57;5.43;;;8.00;57.90;;;;;;5109086;27;34043;-77
2021/12/15 09:13:38;;;;;;;7.90;5.15;;;8.00;57.60;;;;;;5109492;27;34214;-76
2021/12/15 09:16:08;;;;;;;7.90;5.13;;;8.10;57.60;;;;;;5108238;27;35892;-78
2021/12/15 09:18:38;;;;;;;7.40;5.00;;;8.10;57.60;;;;;;5091347;27;34109;-78
2021/12/15 09:21:07;;;;;;;9.07;5.50;;;8.10;57.50;;;;;;5091789;27;34254;-77
2021/12/15 09:23:34;;;;;;;8.43;5.38;;;8.10;57.50;;;;;;5108388;27;34093;-76
2021/12/15 09:26:00;;;;;;;7.03;5.10;;;8.10;57.50;;;;;;5108765;27;35620;-76
2021/12/15 09:28:26;;;;;;;9.52;5.55;;;8.20;57.70;;;;;;5127254;27;34126;-76
2021/12/15 09:30:54;;;;;;;8.02;5.40;;;8.20;57.70;;;;;;5109680;27;34125;-77
2021/12/15 09:33:28;;;;;;;7.45;4.90;;;8.20;57.50;;;;;;5092350;27;34520;-76
2021/12/15 09:35:55;;;;;;;7.75;5.38;;;8.30;57.60;;;;;;5108709;27;36055;-76
2021/12/15 09:38:22;;;;;;;7.65;5.40;;;8.30;57.50;;;;;;5109737;27;34205;-77
2021/12/15 09:40:51;;;;;;;8.00;5.45;;;8.30;57.30;;;;;;5092083;27;34231;-76
2021/12/15 09:43:17;;;;;;;8.02;5.20;;;8.40;57.40;;;;;;5109752;27;34033;-77
2021/12/15 09:45:51;;;;;;;9.02;5.90;;;8.40;57.30;;;;;;5109451;27;34732;-77
2021/12/15 10:02:07;;;;;;;7.47;4.68;;;8.50;57.20;;;;;;5111218;27;34219;-76
2021/12/15 10:18:34;;;;;;;7.95;5.65;;;8.80;56.90;;;;;;5114356;27;34712;-77
2021/12/15 10:21:01;;;;;;;9.13;5.13;;;8.80;56.80;;;;;;5130562;27;34336;-77
2021/12/15 10:23:36;;;;;;;9.63;5.20;;;8.80;56.90;;;;;;5112369;27;34113;-77
2021/12/15 10:26:05;;;;;;;8.68;5.63;;;8.80;56.80;;;;;;5096545;27;34294;-76
2021/12/15 10:28:32;;;;;;;8.88;5.85;;;8.90;57.10;;;;;;5094823;27;34263;-77
2021/12/15 10:31:03;;;;;;;8.65;6.28;;;8.90;57.00;;;;;;5113912;27;34313;-76
2021/12/15 10:33:35;;;;;;;8.05;5.72;;;9.10;57.10;;;;;;5092869;28;34215;-76
2021/12/15 10:36:09;;;;;;;7.97;4.97;;;9.10;57.60;;;;;;5111090;27;34084;-77
2021/12/15 10:38:41;;;;;;;7.97;5.10;;;9.20;56.80;;;;;;5109346;28;35964;-77
2021/12/15 10:41:12;;;;;;;8.38;5.32;;;9.20;56.70;;;;;;5077344;28;34248;-77
2021/12/15 10:44:00;;;;;;;7.60;5.57;;;9.30;56.70;;;;;;5080296;27;34161;-77
2021/12/15 10:46:33;;;;;;;6.68;4.97;;;9.30;56.50;;;;;;5095508;28;34368;-77
2021/12/15 10:49:04;;;;;;;8.35;5.68;;;9.40;56.70;;;;;;5077052;28;35622;-77
2021/12/15 10:51:51;;;;;;;9.25;5.43;;;9.50;56.90;;;;;;5126693;27;34284;-77
2021/12/15 10:54:23;;;;;;;9.48;6.05;;;9.50;56.40;;;;;;5087205;28;34281;-77
2021/12/15 10:56:58;;;;;;;6.78;4.90;;;9.60;56.60;;;;;;5077006;28;34531;-77
2021/12/15 10:59:28;;;;;;;8.15;5.30;;;9.70;56.50;;;;;;5092353;28;36237;-77
2021/12/15 11:02:00;;;;;;;8.90;5.45;;;9.70;56.60;;;;;;5075829;28;34250;-77
2021/12/15 11:04:34;;;;;;;7.70;5.32;;;9.80;56.60;;;;;;5076261;28;34415;-77
2021/12/15 11:07:05;;;;;;;7.35;5.45;;;10.00;56.50;;;;;;5110214;28;34393;-77
2021/12/15 11:09:48;;;;;;;7.72;5.55;;;10.10;56.40;;;;;;5126292;27;34853;-77
2021/12/15 11:12:21;;;;;;;10.52;6.10;;;10.10;56.30;;;;;;5077218;28;34486;-77
2021/12/15 11:14:51;;;;;;;9.02;5.38;;;10.20;56.00;;;;;;5092505;27;34135;-77
2021/12/15 11:17:24;;;;;;;7.78;5.20;;;10.30;56.20;;;;;;5075594;28;34169;-77
2021/12/15 11:19:56;;;;;;;10.68;5.43;;;10.30;56.00;;;;;;5126236;27;34158;-77
2021/12/15 11:22:40;;;;;;;7.35;5.15;;;10.40;55.80;;;;;;5109426;27;34320;-77
2021/12/15 11:25:13;;;;;;;8.27;5.40;;;10.40;55.50;;;;;;5092047;28;34078;-77
2021/12/15 11:27:40;;;;;;;8.20;5.50;;;10.40;55.90;;;;;;5092796;28;34312;-77
2021/12/15 11:30:12;;;;;;;8.52;5.10;;;10.40;55.80;;;;;;5091524;28;35768;-77
2021/12/15 11:32:49;;;;;;;6.65;5.10;;;10.40;55.70;;;;;;5091742;28;34319;-77
2021/12/15 11:35:21;;;;;;;6.40;4.55;;;10.50;55.60;;;;;;5090857;28;34111;-77
2021/12/15 11:37:56;;;;;;;7.13;4.97;;;10.50;55.70;;;;;;5108868;28;34090;-77
2021/12/15 11:40:28;;;;;;;6.75;4.75;;;10.50;55.50;;;;;;5092835;28;35487;-77
2021/12/15 11:42:54;;;;;;;7.68;4.63;;;10.50;55.80;;;;;;5091624;28;34603;-77
2021/12/15 11:45:20;;;;;;;7.43;4.93;;;10.60;55.70;;;;;;5091838;28;34147;-77
2021/12/15 11:47:46;;;;;;;7.15;5.10;;;10.50;55.60;;;;;;5110845;28;34085;-76
2021/12/15 11:50:18;;;;;;;9.57;5.22;;;10.50;55.70;;;;;;5091204;28;36033;-77
2021/12/15 11:52:49;;;;;;;7.00;4.97;;;10.50;55.60;;;;;;5108559;28;34324;-77
2021/12/15 11:55:26;;;;;;;5.47;4.28;;;10.60;55.50;;;;;;5073852;28;34415;-77
2021/12/15 11:57:53;;;;;;;5.45;3.78;;;10.50;55.00;;;;;;5089303;28;34193;-76
2021/12/15 12:00:22;;;;;;;5.68;4.18;;;10.40;55.50;;;;;;5123868;27;34878;-76
2021/12/15 12:02:52;;;;;;;8.57;4.72;;;10.40;55.60;;;;;;5091060;28;34192;-77
2021/12/15 12:05:24;;;;;;;6.03;4.35;;;10.40;55.70;;;;;;5074896;28;34404;-77
2021/12/15 12:07:55;;;;;;;7.82;4.78;;;10.50;55.70;;;;;;5106744;28;34220;-77
2021/12/15 12:10:28;;;;;;;5.82;3.85;;;10.50;55.70;;;;;;5089598;28;35765;-77
2021/12/15 12:13:05;;;;;;;7.55;3.72;;;10.50;56.30;;;;;;5074551;28;34206;-77
2021/12/15 12:15:34;;;;;;;5.90;4.28;;;10.50;55.60;;;;;;5090901;28;34182;-77
2021/12/15 12:18:07;;;;;;;6.03;4.30;;;10.70;55.60;;;;;;5106521;28;34124;-76
2021/12/15 12:20:43;;;;;;;7.30;4.55;;;10.70;55.40;;;;;;5107818;28;36305;-77
2021/12/15 12:23:13;;;;;;;4.78;3.85;;;10.70;55.20;;;;;;5090122;28;34206;-77
2021/12/15 12:25:45;;;;;;;5.47;4.57;;;10.70;55.40;;;;;;5107372;28;34146;-77
2021/12/15 12:28:15;;;;;;;6.65;4.80;;;10.80;55.40;;;;;;5090350;28;34159;-77
2021/12/15 12:30:44;;;;;;;6.38;4.75;;;10.80;55.30;;;;;;5088934;28;35635;-76
2021/12/15 12:33:13;;;;;;;7.18;4.97;;;10.70;55.40;;;;;;5090427;28;34257;-76
2021/12/15 12:35:48;;;;;;;5.43;4.07;;;10.70;55.50;;;;;;5122788;27;34103;-77
2021/12/15 12:38:18;;;;;;;8.32;4.25;;;10.80;55.30;;;;;;5090203;28;34206;-77
2021/12/15 12:41:06;;;;;;;5.65;3.95;;;10.80;55.40;;;;;;5107588;28;35651;-77
2021/12/15 12:43:39;;;;;;;6.80;4.63;;;10.90;54.90;;;;;;5089220;28;34163;-76
2021/12/15 12:46:16;;;;;;;6.35;4.80;;;10.90;55.40;;;;;;5122870;27;34202;-76
2021/12/15 12:49:23;;;;;;;8.05;4.97;;;10.90;55.60;;;;;;5104648;28;34407;-76
2021/12/15 12:59:59;;;;;;;6.80;4.75;;;10.70;55.40;;;;;;5107405;28;33961;-76
2021/12/15 13:02:41;;;;;;;6.25;4.55;;;10.70;55.50;;;;;;5088719;28;35952;-77
2021/12/15 13:05:32;;;;;;;6.00;4.30;;;10.80;55.50;;;;;;5123453;27;34073;-76
2021/12/15 13:08:03;;;;;;;8.02;4.65;;;10.90;54.90;;;;;;5124945;27;34188;-76
2021/12/15 13:10:52;;;;;;;6.93;4.38;;;10.90;55.50;;;;;;5106905;28;34298;-76
2021/12/15 13:13:22;;;;;;;6.97;4.60;;;10.90;54.60;;;;;;5103337;28;36450;-76
2021/12/15 13:16:09;;;;;;;6.15;4.60;;;10.90;55.40;;;;;;5089617;28;34079;-77
2021/12/15 13:18:54;;;;;;;5.93;4.32;;;10.90;55.00;;;;;;5090406;28;33650;-77
2021/12/15 13:21:36;;;;;;;8.13;4.15;;;10.90;55.20;;;;;;5106709;28;34218;-77
2021/12/15 13:24:08;;;;;;;7.22;4.47;;;10.90;55.70;;;;;;5124454;27;35953;-77
2021/12/15 13:29:37;;;;;;;5.75;4.00;;;10.90;55.10;;;;;;5122367;27;34599;-77
2021/12/15 13:32:05;;;;;;;6.05;4.22;;;11.00;55.50;;;;;;5090819;28;34152;-76
2021/12/15 13:34:35;;;;;;;6.95;4.38;;;10.90;55.50;;;;;;5073658;28;35579;-77
2021/12/15 13:37:02;;;;;;;7.57;4.60;;;10.90;55.50;;;;;;5124611;27;34271;-77
2021/12/15 13:39:43;;;;;;;6.25;4.20;;;10.90;55.50;;;;;;5088877;28;34206;-76
2021/12/15 13:42:15;;;;;;;6.38;4.43;;;11.00;55.10;;;;;;5089998;28;34568;-77
2021/12/15 13:44:46;;;;;;;5.70;4.28;;;10.90;55.50;;;;;;5073780;28;35784;-76
2021/12/15 13:47:17;;;;;;;6.13;4.40;;;11.00;55.50;;;;;;5091113;28;34251;-77
2021/12/15 13:49:51;;;;;;;6.38;4.28;;;11.00;55.60;;;;;;5090094;28;34074;-77
2021/12/15 13:52:34;;;;;;;5.75;4.13;;;11.00;55.50;;;;;;5089957;28;34471;-76
2021/12/15 13:55:17;;;;;;;6.55;4.38;;;11.00;55.00;;;;;;5089082;28;36825;-77
2021/12/15 13:57:52;;;;;;;7.43;4.43;;;11.00;55.60;;;;;;5089724;28;34163;-76
2021/12/15 14:00:37;;;;;;;6.93;3.97;;;11.00;55.40;;;;;;5106820;28;34342;-76
2021/12/15 14:03:14;;;;;;;5.93;4.15;;;11.00;55.50;;;;;;5124761;27;34440;-76
2021/12/15 14:05:47;;;;;;;5.43;3.90;;;11.00;55.50;;;;;;5089248;28;35485;-76
2021/12/15 14:08:19;;;;;;;6.00;4.30;;;11.00;55.70;;;;;;5123917;27;34083;-76
2021/12/15 14:10:53;;;;;;;5.55;4.28;;;10.90;55.60;;;;;;5123057;27;33887;-77
2021/12/15 14:13:22;;;;;;;5.53;4.00;;;10.90;55.60;;;;;;5106735;28;34261;-76
2021/12/15 14:15:51;;;;;;;5.28;3.70;;;10.90;55.70;;;;;;5107023;27;35007;-77
2021/12/15 14:18:29;;;;;;;7.22;3.92;;;10.90;55.80;;;;;;5107119;28;34676;-76
2021/12/15 14:21:03;;;;;;;5.88;4.03;;;10.90;55.80;;;;;;5108608;28;34138;-77
2021/12/15 14:23:33;;;;;;;9.10;4.50;;;10.80;55.70;;;;;;5089523;28;34347;-76